Time,TemperatureF,DewpointF,PressureIn,WindDirection,WindDirectionDegrees,WindSpeedMPH,WindSpeedGustMPH,Humidity,HourlyPrecipIn,Conditions,Clouds,dailyrainin,SoftwareType,DateUTC
2013-01-05 00:03:00,64.8,22.8,25.70,North,0,0.0,0.0,20,0.00,,---,0.00,VWS V13.01,2013-01-05 06:03:00,
2013-01-05 00:08:00,64.9,22.9,25.67,North,0,0.0,0.0,20,0.00,,---,0.00,VWS V13.01,2013-01-05 06:08:00,
2013-01-05 00:13:00,65.1,23.1,25.67,North,0,0.0,0.0,20,0.00,,---,0.00,VWS V13.01,2013-01-05 06:13:00,
2013-01-05 00:18:00,65.3,23.2,25.67,North,0,0.0,0.0,20,0.00,,---,0.00,VWS V13.01,2013-01-05 06:18:00,
2013-01-05 00:23:00,65.5,23.4,25.67,North,0,0.0,0.0,20,0.00,,---,0.00,VWS V13.01,2013-01-05 06:23:00,
2013-01-05 00:28:00,65.5,23.4,25.67,North,0,0.0,0.0,20,0.00,,---,0.00,VWS V13.01,2013-01-05 06:28:00,
2013-01-05 00:33:00,65.5,23.4,25.67,North,0,0.0,0.0,20,0.00,,---,0.00,VWS V13.01,2013-01-05 06:33:00,
2013-01-05 00:38:00,65.5,23.4,25.67,North,0,0.0,0.0,20,0.00,,---,0.00,VWS V13.01,2013-01-05 06:38:00,
2013-01-05 00:43:00,65.5,23.4,25.67,North,0,0.0,0.0,20,0.00,,---,0.00,VWS V13.01,2013-01-05 06:43:00,
2013-01-05 00:48:00,65.5,23.4,25.67,North,0,0.0,0.0,20,0.00,,---,0.00,VWS V13.01,2013-01-05 06:48:00,
2013-01-05 00:53:00,65.5,23.4,25.70,North,0,0.0,0.0,20,0.00,,---,0.00,VWS V13.01,2013-01-05 06:53:00,
2013-01-05 00:58:00,65.7,21.0,25.70,North,0,0.0,0.0,18,0.00,,---,0.00,VWS V13.01,2013-01-05 06:58:00,
2013-01-05 01:03:00,65.8,21.2,25.70,North,0,0.0,0.0,18,0.00,,---,0.00,VWS V13.01,2013-01-05 07:03:00,
2013-01-05 01:08:00,66.0,21.3,25.67,North,0,0.0,0.0,18,0.00,,---,0.00,VWS V13.01,2013-01-05 07:08:00,
2013-01-05 01:13:00,66.0,21.3,25.67,North,0,0.0,0.0,18,0.00,,---,0.00,VWS V13.01,2013-01-05 07:13:00,
2013-01-05 01:18:00,66.2,20.1,25.67,North,0,0.0,0.0,17,0.00,,---,0.00,VWS V13.01,2013-01-05 07:18:00,
2013-01-05 01:23:00,66.6,20.4,25.67,North,0,0.0,0.0,17,0.00,,---,0.00,VWS V13.01,2013-01-05 07:23:00,
2013-01-05 01:28:00,66.6,20.4,25.67,North,0,0.0,0.0,17,0.00,,---,0.00,VWS V13.01,2013-01-05 07:28:00,
2013-01-05 01:33:00,66.6,20.4,25.67,North,0,0.0,0.0,17,0.00,,---,0.00,VWS V13.01,2013-01-05 07:33:00,
2013-01-05 01:38:00,66.6,20.4,25.67,North,0,0.0,0.0,17,0.00,,---,0.00,VWS V13.01,2013-01-05 07:38:00,
2013-01-05 01:43:00,66.6,20.4,25.67,North,0,0.0,0.0,17,0.00,,---,0.00,VWS V13.01,2013-01-05 07:43:00,
2013-01-05 01:48:00,66.4,20.3,25.67,North,0,0.0,0.0,17,0.00,,---,0.00,VWS V13.01,2013-01-05 07:48:00,
2013-01-05 01:53:00,66.4,20.3,25.67,North,0,0.0,0.0,17,0.00,,---,0.00,VWS V13.01,2013-01-05 07:53:00,
2013-01-05 01:58:00,66.0,21.3,25.67,North,0,0.0,0.0,18,0.00,,---,0.00,VWS V13.01,2013-01-05 07:58:00,
2013-01-05 02:03:00,65.8,21.2,25.67,North,0,0.0,0.0,18,0.00,,---,0.00,VWS V13.01,2013-01-05 08:03:00,
2013-01-05 02:08:00,65.5,20.9,25.67,North,0,0.0,0.0,18,0.00,,---,0.00,VWS V13.01,2013-01-05 08:08:00,
2013-01-05 02:13:00,64.8,20.3,25.67,North,0,0.0,0.0,18,0.00,,---,0.00,VWS V13.01,2013-01-05 08:13:00,
2013-01-05 02:18:00,64.4,20.0,25.67,North,0,0.0,0.0,18,0.00,,---,0.00,VWS V13.01,2013-01-05 08:18:00,
2013-01-05 02:23:00,64.0,19.7,25.67,North,0,0.0,0.0,18,0.00,,---,0.00,VWS V13.01,2013-01-05 08:23:00,
2013-01-05 02:28:00,63.9,19.6,25.67,North,0,0.0,0.0,18,0.00,,---,0.00,VWS V13.01,2013-01-05 08:28:00,
2013-01-05 02:33:00,63.9,19.6,25.67,North,0,0.0,0.0,18,0.00,,---,0.00,VWS V13.01,2013-01-05 08:33:00,
2013-01-05 02:38:00,63.9,19.6,25.67,North,0,0.0,0.0,18,0.00,,---,0.00,VWS V13.01,2013-01-05 08:38:00,
2013-01-05 02:43:00,63.9,19.6,25.67,North,0,0.0,0.0,18,0.00,,---,0.00,VWS V13.01,2013-01-05 08:43:00,
2013-01-05 02:48:00,63.7,19.4,25.67,North,0,0.0,0.0,18,0.00,,---,0.00,VWS V13.01,2013-01-05 08:48:00,
2013-01-05 02:53:00,63.7,19.4,25.67,North,0,0.0,0.0,18,0.00,,---,0.00,VWS V13.01,2013-01-05 08:53:00,
2013-01-05 02:58:00,63.5,19.3,25.67,North,0,0.0,0.0,18,0.00,,---,0.00,VWS V13.01,2013-01-05 08:58:00,
2013-01-05 03:03:00,63.1,22.6,25.67,North,0,0.0,0.0,21,0.00,,---,0.00,VWS V13.01,2013-01-05 09:03:00,
2013-01-05 03:08:00,63.0,22.5,25.67,North,0,0.0,0.0,21,0.00,,---,0.00,VWS V13.01,2013-01-05 09:08:00,
2013-01-05 03:13:00,62.8,22.3,25.67,North,0,0.0,0.0,21,0.00,,---,0.00,VWS V13.01,2013-01-05 09:13:00,
2013-01-05 03:18:00,62.8,22.3,25.67,North,0,0.0,0.0,21,0.00,,---,0.00,VWS V13.01,2013-01-05 09:18:00,
2013-01-05 03:23:00,62.8,22.3,25.67,North,0,0.0,0.0,21,0.00,,---,0.00,VWS V13.01,2013-01-05 09:23:00,
2013-01-05 03:28:00,62.8,22.3,25.67,North,0,0.0,0.0,21,0.00,,---,0.00,VWS V13.01,2013-01-05 09:28:00,
2013-01-05 03:33:00,63.0,22.5,25.67,North,0,0.0,0.0,21,0.00,,---,0.00,VWS V13.01,2013-01-05 09:33:00,
2013-01-05 03:38:00,63.1,22.6,25.67,North,0,0.0,0.0,21,0.00,,---,0.00,VWS V13.01,2013-01-05 09:38:00,
2013-01-05 03:43:00,63.5,22.9,25.67,North,0,0.0,0.0,21,0.00,,---,0.00,VWS V13.01,2013-01-05 09:43:00,
2013-01-05 03:48:00,63.9,23.2,25.67,North,0,0.0,0.0,21,0.00,,---,0.00,VWS V13.01,2013-01-05 09:48:00,
2013-01-05 03:53:00,64.6,22.6,25.67,North,0,0.0,0.0,20,0.00,,---,0.00,VWS V13.01,2013-01-05 09:53:00,
2013-01-05 03:58:00,64.6,22.6,25.67,North,0,0.0,0.0,20,0.00,,---,0.00,VWS V13.01,2013-01-05 09:58:00,
2013-01-05 04:03:00,64.4,22.5,25.67,North,0,0.0,0.0,20,0.00,,---,0.00,VWS V13.01,2013-01-05 10:03:00,
2013-01-05 04:08:00,64.4,22.5,25.67,North,0,0.0,0.0,20,0.00,,---,0.00,VWS V13.01,2013-01-05 10:08:00,
2013-01-05 04:13:00,64.8,22.8,25.67,North,0,0.0,0.0,20,0.00,,---,0.00,VWS V13.01,2013-01-05 10:13:00,
2013-01-05 04:18:00,64.9,22.9,25.67,North,0,0.0,0.0,20,0.00,,---,0.00,VWS V13.01,2013-01-05 10:18:00,
2013-01-05 04:23:00,65.7,23.5,25.67,North,0,0.0,0.0,20,0.00,,---,0.00,VWS V13.01,2013-01-05 10:23:00,
2013-01-05 04:28:00,66.2,20.1,25.67,North,0,0.0,0.0,17,0.00,,---,0.00,VWS V13.01,2013-01-05 10:28:00,
2013-01-05 04:33:00,66.4,20.3,25.67,North,0,0.0,0.0,17,0.00,,---,0.00,VWS V13.01,2013-01-05 10:33:00,
2013-01-05 04:39:00,66.4,20.3,25.67,North,0,0.0,0.0,17,0.00,,---,0.00,VWS V13.01,2013-01-05 10:39:00,
2013-01-05 04:44:00,66.4,20.3,25.67,North,0,0.0,0.0,17,0.00,,---,0.00,VWS V13.01,2013-01-05 10:44:00,
2013-01-05 04:49:00,66.2,20.1,25.67,North,0,0.0,0.0,17,0.00,,---,0.00,VWS V13.01,2013-01-05 10:49:00,
2013-01-05 04:54:00,65.8,21.2,25.67,North,0,0.0,0.0,18,0.00,,---,0.00,VWS V13.01,2013-01-05 10:54:00,
2013-01-05 04:59:00,65.7,21.0,25.67,North,0,0.0,0.0,18,0.00,,---,0.00,VWS V13.01,2013-01-05 10:59:00,
2013-01-05 05:04:00,65.5,20.9,25.67,North,0,0.0,0.0,18,0.00,,---,0.00,VWS V13.01,2013-01-05 11:04:00,
2013-01-05 05:09:00,65.5,20.9,25.67,North,0,0.0,0.0,18,0.00,,---,0.00,VWS V13.01,2013-01-05 11:09:00,
2013-01-05 05:14:00,65.5,20.9,25.67,North,0,0.0,0.0,18,0.00,,---,0.00,VWS V13.01,2013-01-05 11:14:00,
2013-01-05 05:19:00,65.5,20.9,25.67,North,0,0.0,0.0,18,0.00,,---,0.00,VWS V13.01,2013-01-05 11:19:00,
2013-01-05 05:24:00,65.3,20.7,25.70,North,0,0.0,0.0,18,0.00,,---,0.00,VWS V13.01,2013-01-05 11:24:00,
2013-01-05 05:29:00,65.1,20.6,25.70,North,0,0.0,0.0,18,0.00,,---,0.00,VWS V13.01,2013-01-05 11:29:00,
2013-01-05 05:34:00,64.8,20.3,25.70,North,0,0.0,0.0,18,0.00,,---,0.00,VWS V13.01,2013-01-05 11:34:00,
2013-01-05 05:39:00,64.6,22.6,25.70,North,0,0.0,0.0,20,0.00,,---,0.00,VWS V13.01,2013-01-05 11:39:00,
2013-01-05 05:44:00,64.4,22.5,25.70,North,0,0.0,0.0,20,0.00,,---,0.00,VWS V13.01,2013-01-05 11:44:00,
2013-01-05 05:49:00,63.9,23.2,25.70,North,0,0.0,0.0,21,0.00,,---,0.00,VWS V13.01,2013-01-05 11:49:00,
2013-01-05 05:54:00,63.7,23.0,25.70,North,0,0.0,0.0,21,0.00,,---,0.00,VWS V13.01,2013-01-05 11:54:00,
2013-01-05 05:59:00,63.5,22.9,25.70,North,0,0.0,0.0,21,0.00,,---,0.00,VWS V13.01,2013-01-05 11:59:00,
2013-01-05 06:04:00,63.3,22.8,25.70,North,0,0.0,0.0,21,0.00,,---,0.00,VWS V13.01,2013-01-05 12:04:00,
2013-01-05 06:09:00,63.1,22.6,25.70,North,0,0.0,0.0,21,0.00,,---,0.00,VWS V13.01,2013-01-05 12:09:00,
2013-01-05 06:14:00,63.0,22.5,25.70,North,0,0.0,0.0,21,0.00,,---,0.00,VWS V13.01,2013-01-05 12:14:00,
2013-01-05 06:19:00,63.1,22.6,25.70,North,0,0.0,0.0,21,0.00,,---,0.00,VWS V13.01,2013-01-05 12:19:00,
2013-01-05 06:24:00,63.1,22.6,25.70,North,0,0.0,0.0,21,0.00,,---,0.00,VWS V13.01,2013-01-05 12:24:00,
2013-01-05 06:29:00,63.3,24.9,25.70,North,0,0.0,0.0,23,0.00,,---,0.00,VWS V13.01,2013-01-05 12:29:00,
2013-01-05 06:34:00,63.7,25.2,25.70,North,0,0.0,0.0,23,0.00,,---,0.00,VWS V13.01,2013-01-05 12:34:00,
2013-01-05 06:39:00,64.2,25.7,25.70,North,0,0.0,0.0,23,0.00,,---,0.00,VWS V13.01,2013-01-05 12:39:00,
2013-01-05 06:44:00,64.4,25.8,25.70,North,0,0.0,0.0,23,0.00,,---,0.00,VWS V13.01,2013-01-05 12:44:00,
2013-01-05 06:49:00,64.9,26.3,25.70,North,0,0.0,0.0,23,0.00,,---,0.00,VWS V13.01,2013-01-05 12:49:00,
2013-01-05 06:54:00,65.1,26.4,25.70,North,0,0.0,0.0,23,0.00,,---,0.00,VWS V13.01,2013-01-05 12:54:00,
2013-01-05 06:59:00,65.1,26.4,25.70,North,0,0.0,0.0,23,0.00,,---,0.00,VWS V13.01,2013-01-05 12:59:00,
2013-01-05 07:04:00,65.1,26.4,25.70,North,0,0.0,0.0,23,0.00,,---,0.00,VWS V13.01,2013-01-05 13:04:00,
2013-01-05 07:09:00,66.2,24.0,25.70,North,0,0.0,0.0,20,0.00,,---,0.00,VWS V13.01,2013-01-05 13:09:00,
2013-01-05 07:14:00,66.4,24.1,25.70,North,0,0.0,0.0,20,0.00,,---,0.00,VWS V13.01,2013-01-05 13:14:00,
2013-01-05 07:19:00,66.4,24.1,25.70,North,0,0.0,0.0,20,0.00,,---,0.00,VWS V13.01,2013-01-05 13:19:00,
2013-01-05 07:24:00,66.2,24.0,25.73,North,0,0.0,0.0,20,0.00,,---,0.00,VWS V13.01,2013-01-05 13:24:00,
2013-01-05 07:29:00,66.0,23.8,25.73,North,0,0.0,0.0,20,0.00,,---,0.00,VWS V13.01,2013-01-05 13:29:00,
2013-01-05 07:34:00,66.0,23.8,25.73,North,0,0.0,0.0,20,0.00,,---,0.00,VWS V13.01,2013-01-05 13:34:00,
2013-01-05 07:39:00,66.0,23.8,25.73,North,0,0.0,0.0,20,0.00,,---,0.00,VWS V13.01,2013-01-05 13:39:00,
2013-01-05 07:44:00,66.0,23.8,25.73,North,0,0.0,0.0,20,0.00,,---,0.00,VWS V13.01,2013-01-05 13:44:00,
2013-01-05 07:49:00,66.2,24.0,25.73,North,0,0.0,0.0,20,0.00,,---,0.00,VWS V13.01,2013-01-05 13:49:00,
2013-01-05 07:54:00,66.6,24.3,25.73,North,0,0.0,0.0,20,0.00,,---,0.00,VWS V13.01,2013-01-05 13:54:00,
2013-01-05 07:59:00,67.3,24.9,25.73,North,0,0.0,0.0,20,0.00,,---,0.00,VWS V13.01,2013-01-05 13:59:00,
2013-01-05 08:04:00,67.6,25.2,25.73,North,0,0.0,0.0,20,0.00,,---,0.00,VWS V13.01,2013-01-05 14:04:00,
2013-01-05 08:09:00,67.6,25.2,25.73,North,0,0.0,0.0,20,0.00,,---,0.00,VWS V13.01,2013-01-05 14:09:00,
2013-01-05 08:14:00,68.2,25.6,25.73,North,0,0.0,0.0,20,0.00,,---,0.00,VWS V13.01,2013-01-05 14:14:00,
2013-01-05 08:19:00,68.7,26.1,25.73,North,0,0.0,0.0,20,0.00,,---,0.00,VWS V13.01,2013-01-05 14:19:00,
2013-01-05 08:24:00,69.4,26.7,25.76,North,0,0.0,0.0,20,0.00,,---,0.00,VWS V13.01,2013-01-05 14:24:00,
2013-01-05 08:29:00,69.8,25.7,25.76,North,0,0.0,0.0,19,0.00,,---,0.00,VWS V13.01,2013-01-05 14:29:00,
2013-01-05 08:34:00,70.3,26.2,25.76,North,0,0.0,0.0,19,0.00,,---,0.00,VWS V13.01,2013-01-05 14:34:00,
2013-01-05 08:39:00,70.5,26.3,25.76,North,0,0.0,0.0,19,0.00,,---,0.00,VWS V13.01,2013-01-05 14:39:00,
2013-01-05 08:44:00,70.7,26.5,25.76,North,0,0.0,0.0,19,0.00,,---,0.00,VWS V13.01,2013-01-05 14:44:00,
2013-01-05 08:49:00,71.2,26.9,25.76,North,0,0.0,0.0,19,0.00,,---,0.00,VWS V13.01,2013-01-05 14:49:00,
2013-01-05 08:54:00,71.4,27.0,25.79,North,0,0.0,0.0,19,0.00,,---,0.00,VWS V13.01,2013-01-05 14:54:00,
2013-01-05 08:59:00,71.4,27.0,25.79,North,0,0.0,0.0,19,0.00,,---,0.00,VWS V13.01,2013-01-05 14:59:00,
2013-01-05 09:04:00,72.0,27.5,25.79,North,0,0.0,0.0,19,0.00,,---,0.00,VWS V13.01,2013-01-05 15:04:00,
2013-01-05 09:09:00,72.0,27.5,25.79,North,0,0.0,0.0,19,0.00,,---,0.00,VWS V13.01,2013-01-05 15:09:00,
2013-01-05 09:14:00,71.2,24.2,25.79,North,0,0.0,0.0,17,0.00,,---,0.00,VWS V13.01,2013-01-05 15:14:00,
2013-01-05 09:19:00,71.2,24.2,25.79,North,0,0.0,0.0,17,0.00,,---,0.00,VWS V13.01,2013-01-05 15:19:00,
2013-01-05 09:24:00,70.7,26.5,25.79,North,0,0.0,0.0,19,0.00,,---,0.00,VWS V13.01,2013-01-05 15:24:00,
2013-01-05 09:29:00,70.7,26.5,25.79,North,0,0.0,0.0,19,0.00,,---,0.00,VWS V13.01,2013-01-05 15:29:00,
2013-01-05 09:34:00,70.7,26.5,25.79,North,0,0.0,0.0,19,0.00,,---,0.00,VWS V13.01,2013-01-05 15:34:00,
2013-01-05 09:40:00,70.7,26.5,25.79,North,0,0.0,0.0,19,0.00,,---,0.00,VWS V13.01,2013-01-05 15:40:00,
2013-01-05 09:45:00,70.7,26.5,25.79,North,0,0.0,0.0,19,0.00,,---,0.00,VWS V13.01,2013-01-05 15:45:00,
2013-01-05 09:50:00,70.7,26.5,25.79,North,0,0.0,0.0,19,0.00,,---,0.00,VWS V13.01,2013-01-05 15:50:00,
2013-01-05 09:55:00,70.7,26.5,25.79,North,0,0.0,0.0,19,0.00,,---,0.00,VWS V13.01,2013-01-05 15:55:00,
2013-01-05 10:00:00,70.7,26.5,25.79,North,0,0.0,0.0,19,0.00,,---,0.00,VWS V13.01,2013-01-05 16:00:00,
2013-01-05 10:05:00,73.8,27.6,25.79,North,0,0.0,0.0,18,0.00,,---,0.00,VWS V13.01,2013-01-05 16:05:00,
2013-01-05 10:10:00,73.8,27.6,25.79,North,0,0.0,0.0,18,0.00,,---,0.00,VWS V13.01,2013-01-05 16:10:00,
2013-01-05 10:15:00,73.8,27.6,25.79,North,0,0.0,0.0,18,0.00,,---,0.00,VWS V13.01,2013-01-05 16:15:00,
2013-01-05 10:20:00,73.8,27.6,25.79,North,0,0.0,0.0,18,0.00,,---,0.00,VWS V13.01,2013-01-05 16:20:00,
2013-01-05 10:25:00,73.8,27.6,25.79,North,0,0.0,0.0,18,0.00,,---,0.00,VWS V13.01,2013-01-05 16:25:00,
2013-01-05 10:30:00,73.8,27.6,25.79,North,0,0.0,0.0,18,0.00,,---,0.00,VWS V13.01,2013-01-05 16:30:00,
2013-01-05 10:35:00,73.8,27.6,25.79,North,0,0.0,0.0,18,0.00,,---,0.00,VWS V13.01,2013-01-05 16:35:00,
2013-01-05 10:40:00,73.8,27.6,25.79,North,0,0.0,0.0,18,0.00,,---,0.00,VWS V13.01,2013-01-05 16:40:00,
2013-01-05 10:45:00,73.8,27.6,25.79,North,0,0.0,0.0,18,0.00,,---,0.00,VWS V13.01,2013-01-05 16:45:00,
2013-01-05 10:50:00,73.8,27.6,25.79,North,0,0.0,0.0,18,0.00,,---,0.00,VWS V13.01,2013-01-05 16:50:00,
2013-01-05 10:55:00,73.8,27.6,25.79,North,0,0.0,0.0,18,0.00,,---,0.00,VWS V13.01,2013-01-05 16:55:00,
2013-01-05 11:00:00,73.8,27.6,25.79,North,0,0.0,0.0,18,0.00,,---,0.00,VWS V13.01,2013-01-05 17:00:00,
2013-01-05 11:05:00,73.8,27.6,25.79,North,0,0.0,0.0,18,0.00,,---,0.00,VWS V13.01,2013-01-05 17:05:00,
2013-01-05 11:10:00,73.8,27.6,25.79,North,0,0.0,0.0,18,0.00,,---,0.00,VWS V13.01,2013-01-05 17:10:00,
2013-01-05 11:15:00,73.8,27.6,25.79,North,0,0.0,0.0,18,0.00,,---,0.00,VWS V13.01,2013-01-05 17:15:00,
2013-01-05 11:20:00,73.8,27.6,25.79,North,0,0.0,0.0,18,0.00,,---,0.00,VWS V13.01,2013-01-05 17:20:00,
2013-01-05 11:25:00,73.8,27.6,25.79,North,0,0.0,0.0,18,0.00,,---,0.00,VWS V13.01,2013-01-05 17:25:00,
2013-01-05 11:30:00,73.8,27.6,25.79,North,0,0.0,0.0,18,0.00,,---,0.00,VWS V13.01,2013-01-05 17:30:00,
2013-01-05 11:35:00,73.8,27.6,25.79,North,0,0.0,0.0,18,0.00,,---,0.00,VWS V13.01,2013-01-05 17:35:00,
2013-01-05 11:40:00,73.8,27.6,25.79,North,0,0.0,0.0,18,0.00,,---,0.00,VWS V13.01,2013-01-05 17:40:00,
2013-01-05 11:45:00,73.8,27.6,25.79,North,0,0.0,0.0,18,0.00,,---,0.00,VWS V13.01,2013-01-05 17:45:00,
2013-01-05 11:50:00,73.8,27.6,25.79,North,0,0.0,0.0,18,0.00,,---,0.00,VWS V13.01,2013-01-05 17:50:00,
2013-01-05 11:55:00,73.8,27.6,25.79,North,0,0.0,0.0,18,0.00,,---,0.00,VWS V13.01,2013-01-05 17:55:00,
2013-01-05 12:00:00,73.8,27.6,25.79,North,0,0.0,0.0,18,0.00,,---,0.00,VWS V13.01,2013-01-05 18:00:00,
2013-01-05 12:05:00,73.8,27.6,25.79,North,0,0.0,0.0,18,0.00,,---,0.00,VWS V13.01,2013-01-05 18:05:00,
2013-01-05 12:10:00,73.8,27.6,25.79,North,0,0.0,0.0,18,0.00,,---,0.00,VWS V13.01,2013-01-05 18:10:00,
2013-01-05 12:15:00,73.8,27.6,25.79,North,0,0.0,0.0,18,0.00,,---,0.00,VWS V13.01,2013-01-05 18:15:00,
2013-01-05 12:20:00,73.8,27.6,25.79,North,0,0.0,0.0,18,0.00,,---,0.00,VWS V13.01,2013-01-05 18:20:00,
2013-01-05 12:25:00,73.8,27.6,25.76,North,0,0.0,0.0,18,0.00,,---,0.00,VWS V13.01,2013-01-05 18:25:00,
2013-01-05 12:30:00,73.8,27.6,25.76,North,0,0.0,0.0,18,0.00,,---,0.00,VWS V13.01,2013-01-05 18:30:00,
2013-01-05 12:35:00,77.2,26.0,25.76,North,0,0.0,0.0,15,0.00,,---,0.00,VWS V13.01,2013-01-05 18:35:00,
2013-01-05 12:40:00,77.2,26.0,25.76,North,0,0.0,0.0,15,0.00,,---,0.00,VWS V13.01,2013-01-05 18:40:00,
2013-01-05 12:45:00,77.2,26.0,25.76,North,0,0.0,0.0,15,0.00,,---,0.00,VWS V13.01,2013-01-05 18:45:00,
2013-01-05 12:50:00,77.2,26.0,25.76,North,0,0.0,0.0,15,0.00,,---,0.00,VWS V13.01,2013-01-05 18:50:00,
2013-01-05 12:55:00,77.2,26.0,25.76,North,0,0.0,0.0,15,0.00,,---,0.00,VWS V13.01,2013-01-05 18:55:00,
2013-01-05 13:00:00,77.2,26.0,25.76,North,0,0.0,0.0,15,0.00,,---,0.00,VWS V13.01,2013-01-05 19:00:00,
2013-01-05 13:05:00,77.2,26.0,25.76,North,0,0.0,0.0,15,0.00,,---,0.00,VWS V13.01,2013-01-05 19:05:00,
2013-01-05 13:10:00,77.2,26.0,25.73,North,0,0.0,0.0,15,0.00,,---,0.00,VWS V13.01,2013-01-05 19:10:00,
2013-01-05 13:15:00,77.2,26.0,25.73,North,0,0.0,0.0,15,0.00,,---,0.00,VWS V13.01,2013-01-05 19:15:00,
2013-01-05 13:20:00,77.2,26.0,25.73,North,0,0.0,0.0,15,0.00,,---,0.00,VWS V13.01,2013-01-05 19:20:00,
2013-01-05 13:25:00,77.2,26.0,25.76,North,0,0.0,0.0,15,0.00,,---,0.00,VWS V13.01,2013-01-05 19:25:00,
2013-01-05 13:30:00,77.2,26.0,25.76,North,0,0.0,0.0,15,0.00,,---,0.00,VWS V13.01,2013-01-05 19:30:00,
2013-01-05 13:35:00,77.2,26.0,25.76,North,0,0.0,0.0,15,0.00,,---,0.00,VWS V13.01,2013-01-05 19:35:00,
2013-01-05 13:40:00,77.2,26.0,25.76,North,0,0.0,0.0,15,0.00,,---,0.00,VWS V13.01,2013-01-05 19:40:00,
2013-01-05 13:45:00,77.2,26.0,25.76,North,0,0.0,0.0,15,0.00,,---,0.00,VWS V13.01,2013-01-05 19:45:00,
2013-01-05 13:50:00,77.2,26.0,25.76,North,0,0.0,0.0,15,0.00,,---,0.00,VWS V13.01,2013-01-05 19:50:00,
2013-01-05 13:55:00,77.2,26.0,25.73,North,0,0.0,0.0,15,0.00,,---,0.00,VWS V13.01,2013-01-05 19:55:00,
2013-01-05 14:00:00,77.2,26.0,25.73,North,0,0.0,0.0,15,0.00,,---,0.00,VWS V13.01,2013-01-05 20:00:00,
2013-01-05 14:05:00,77.2,26.0,25.73,North,0,0.0,0.0,15,0.00,,---,0.00,VWS V13.01,2013-01-05 20:05:00,
2013-01-05 14:10:00,77.2,26.0,25.73,North,0,0.0,0.0,15,0.00,,---,0.00,VWS V13.01,2013-01-05 20:10:00,
2013-01-05 14:15:00,77.2,26.0,25.73,North,0,0.0,0.0,15,0.00,,---,0.00,VWS V13.01,2013-01-05 20:15:00,
2013-01-05 14:20:00,77.2,26.0,25.70,North,0,0.0,0.0,15,0.00,,---,0.00,VWS V13.01,2013-01-05 20:20:00,
2013-01-05 14:25:00,77.2,26.0,25.70,North,0,0.0,0.0,15,0.00,,---,0.00,VWS V13.01,2013-01-05 20:25:00,
2013-01-05 14:30:00,77.2,26.0,25.70,North,0,0.0,0.0,15,0.00,,---,0.00,VWS V13.01,2013-01-05 20:30:00,
2013-01-05 14:35:00,77.2,26.0,25.70,North,0,0.0,0.0,15,0.00,,---,0.00,VWS V13.01,2013-01-05 20:35:00,
2013-01-05 14:40:00,77.2,26.0,25.70,North,0,0.0,0.0,15,0.00,,---,0.00,VWS V13.01,2013-01-05 20:40:00,
2013-01-05 14:45:00,77.2,26.0,25.70,North,0,0.0,0.0,15,0.00,,---,0.00,VWS V13.01,2013-01-05 20:45:00,
2013-01-05 14:50:00,77.2,26.0,25.70,North,0,0.0,0.0,15,0.00,,---,0.00,VWS V13.01,2013-01-05 20:50:00,
2013-01-05 14:55:00,77.2,26.0,25.70,North,0,0.0,0.0,15,0.00,,---,0.00,VWS V13.01,2013-01-05 20:55:00,
2013-01-05 15:00:00,77.2,26.0,25.70,North,0,0.0,0.0,15,0.00,,---,0.00,VWS V13.01,2013-01-05 21:00:00,
2013-01-05 15:05:00,70.9,26.6,25.70,North,0,0.0,0.0,19,0.00,,---,0.00,VWS V13.01,2013-01-05 21:05:00,
2013-01-05 15:10:00,70.9,26.6,25.70,North,0,0.0,0.0,19,0.00,,---,0.00,VWS V13.01,2013-01-05 21:10:00,
2013-01-05 15:15:00,70.9,26.6,25.70,North,0,0.0,0.0,19,0.00,,---,0.00,VWS V13.01,2013-01-05 21:15:00,
2013-01-05 15:20:00,70.9,26.6,25.70,North,0,0.0,0.0,19,0.00,,---,0.00,VWS V13.01,2013-01-05 21:20:00,
2013-01-05 15:25:00,69.8,25.7,25.70,North,0,0.0,0.0,19,0.00,,---,0.00,VWS V13.01,2013-01-05 21:25:00,
2013-01-05 15:30:00,69.6,26.8,25.70,North,0,0.0,0.0,20,0.00,,---,0.00,VWS V13.01,2013-01-05 21:30:00,
2013-01-05 15:35:00,69.6,26.8,25.70,North,0,0.0,0.0,20,0.00,,---,0.00,VWS V13.01,2013-01-05 21:35:00,
2013-01-05 15:40:00,69.6,26.8,25.70,North,0,0.0,0.0,20,0.00,,---,0.00,VWS V13.01,2013-01-05 21:40:00,
2013-01-05 15:45:00,69.6,26.8,25.70,North,0,0.0,0.0,20,0.00,,---,0.00,VWS V13.01,2013-01-05 21:45:00,
2013-01-05 15:50:00,69.6,26.8,25.70,North,0,0.0,0.0,20,0.00,,---,0.00,VWS V13.01,2013-01-05 21:50:00,
2013-01-05 15:55:00,69.4,26.7,25.70,North,0,0.0,0.0,20,0.00,,---,0.00,VWS V13.01,2013-01-05 21:55:00,
2013-01-05 16:00:00,69.4,26.7,25.70,North,0,0.0,0.0,20,0.00,,---,0.00,VWS V13.01,2013-01-05 22:00:00,
2013-01-05 16:05:00,69.4,26.7,25.70,North,0,0.0,0.0,20,0.00,,---,0.00,VWS V13.01,2013-01-05 22:05:00,
2013-01-05 16:10:00,69.4,26.7,25.67,North,0,0.0,0.0,20,0.00,,---,0.00,VWS V13.01,2013-01-05 22:10:00,
2013-01-05 16:15:00,69.4,26.7,25.67,North,0,0.0,0.0,20,0.00,,---,0.00,VWS V13.01,2013-01-05 22:15:00,
2013-01-05 16:20:00,69.4,26.7,25.67,North,0,0.0,0.0,20,0.00,,---,0.00,VWS V13.01,2013-01-05 22:20:00,
2013-01-05 16:25:00,69.4,26.7,25.67,North,0,0.0,0.0,20,0.00,,---,0.00,VWS V13.01,2013-01-05 22:25:00,
2013-01-05 16:30:00,68.4,28.1,25.67,North,0,0.0,0.0,22,0.00,,---,0.00,VWS V13.01,2013-01-05 22:30:00,
2013-01-05 16:35:00,68.4,28.1,25.67,North,0,0.0,0.0,22,0.00,,---,0.00,VWS V13.01,2013-01-05 22:35:00,
2013-01-05 16:40:00,68.4,28.1,25.67,North,0,0.0,0.0,22,0.00,,---,0.00,VWS V13.01,2013-01-05 22:40:00,
2013-01-05 16:45:00,68.4,25.8,25.67,North,0,0.0,0.0,20,0.00,,---,0.00,VWS V13.01,2013-01-05 22:45:00,
2013-01-05 16:50:00,68.4,25.8,25.67,North,0,0.0,0.0,20,0.00,,---,0.00,VWS V13.01,2013-01-05 22:50:00,
2013-01-05 16:55:00,68.4,25.8,25.67,North,0,0.0,0.0,20,0.00,,---,0.00,VWS V13.01,2013-01-05 22:55:00,
2013-01-05 17:00:00,68.4,25.8,25.67,North,0,0.0,0.0,20,0.00,,---,0.00,VWS V13.01,2013-01-05 23:00:00,
2013-01-05 17:05:00,68.4,25.8,25.67,North,0,0.0,0.0,20,0.00,,---,0.00,VWS V13.01,2013-01-05 23:05:00,
2013-01-05 17:10:00,68.4,25.8,25.67,North,0,0.0,0.0,20,0.00,,---,0.00,VWS V13.01,2013-01-05 23:10:00,
2013-01-05 17:15:00,68.4,25.8,25.67,North,0,0.0,0.0,20,0.00,,---,0.00,VWS V13.01,2013-01-05 23:15:00,
2013-01-05 17:20:00,68.4,25.8,25.67,North,0,0.0,0.0,20,0.00,,---,0.00,VWS V13.01,2013-01-05 23:20:00,
2013-01-05 17:25:00,68.4,25.8,25.67,North,0,0.0,0.0,20,0.00,,---,0.00,VWS V13.01,2013-01-05 23:25:00,
2013-01-05 17:30:00,68.4,25.8,25.67,North,0,0.0,0.0,20,0.00,,---,0.00,VWS V13.01,2013-01-05 23:30:00,
2013-01-05 17:35:00,68.4,25.8,25.67,North,0,0.0,0.0,20,0.00,,---,0.00,VWS V13.01,2013-01-05 23:35:00,
2013-01-05 17:40:00,68.4,25.8,25.67,North,0,0.0,0.0,20,0.00,,---,0.00,VWS V13.01,2013-01-05 23:40:00,
2013-01-05 17:45:00,68.4,25.8,25.67,North,0,0.0,0.0,20,0.00,,---,0.00,VWS V13.01,2013-01-05 23:45:00,
2013-01-05 17:50:00,66.6,26.6,25.67,North,0,0.0,0.0,22,0.00,,---,0.00,VWS V13.01,2013-01-05 23:50:00,
2013-01-05 17:55:00,66.6,26.6,25.67,North,0,0.0,0.0,22,0.00,,---,0.00,VWS V13.01,2013-01-05 23:55:00,
2013-01-05 18:00:00,66.6,26.6,25.67,North,0,0.0,0.0,22,0.00,,---,0.00,VWS V13.01,2013-01-06 00:00:00,
2013-01-05 18:05:00,66.6,26.6,25.67,North,0,0.0,0.0,22,0.00,,---,0.00,VWS V13.01,2013-01-06 00:05:00,
2013-01-05 18:10:00,66.6,26.6,25.67,North,0,0.0,0.0,22,0.00,,---,0.00,VWS V13.01,2013-01-06 00:10:00,
2013-01-05 18:15:00,66.6,26.6,25.67,North,0,0.0,0.0,22,0.00,,---,0.00,VWS V13.01,2013-01-06 00:15:00,
2013-01-05 18:20:00,66.9,24.6,25.67,North,0,0.0,0.0,20,0.00,,---,0.00,VWS V13.01,2013-01-06 00:20:00,
2013-01-05 18:25:00,66.9,24.6,25.67,North,0,0.0,0.0,20,0.00,,---,0.00,VWS V13.01,2013-01-06 00:25:00,
2013-01-05 18:30:00,66.9,24.6,25.67,North,0,0.0,0.0,20,0.00,,---,0.00,VWS V13.01,2013-01-06 00:30:00,
2013-01-05 18:35:00,66.9,24.6,25.67,North,0,0.0,0.0,20,0.00,,---,0.00,VWS V13.01,2013-01-06 00:35:00,
2013-01-05 18:40:00,67.1,24.7,25.67,North,0,0.0,0.0,20,0.00,,---,0.00,VWS V13.01,2013-01-06 00:40:00,
2013-01-05 18:45:00,67.1,24.7,25.67,North,0,0.0,0.0,20,0.00,,---,0.00,VWS V13.01,2013-01-06 00:45:00,
2013-01-05 18:50:00,67.3,24.9,25.67,North,0,0.0,0.0,20,0.00,,---,0.00,VWS V13.01,2013-01-06 00:50:00,
2013-01-05 18:55:00,67.3,24.9,25.67,North,0,0.0,0.0,20,0.00,,---,0.00,VWS V13.01,2013-01-06 00:55:00,
2013-01-05 19:00:00,67.3,24.9,25.67,North,0,0.0,0.0,20,0.00,,---,0.00,VWS V13.01,2013-01-06 01:00:00,
2013-01-05 19:05:00,67.3,24.9,25.70,North,0,0.0,0.0,20,0.00,,---,0.00,VWS V13.01,2013-01-06 01:05:00,
2013-01-05 19:10:00,67.3,24.9,25.70,North,0,0.0,0.0,20,0.00,,---,0.00,VWS V13.01,2013-01-06 01:10:00,
2013-01-05 19:15:00,67.3,24.9,25.70,North,0,0.0,0.0,20,0.00,,---,0.00,VWS V13.01,2013-01-06 01:15:00,
2013-01-05 19:20:00,66.7,24.4,25.70,North,0,0.0,0.0,20,0.00,,---,0.00,VWS V13.01,2013-01-06 01:20:00,
2013-01-05 19:25:00,66.7,24.4,25.70,North,0,0.0,0.0,20,0.00,,---,0.00,VWS V13.01,2013-01-06 01:25:00,
2013-01-05 19:30:00,66.7,24.4,25.70,North,0,0.0,0.0,20,0.00,,---,0.00,VWS V13.01,2013-01-06 01:30:00,
2013-01-05 19:35:00,66.7,24.4,25.70,North,0,0.0,0.0,20,0.00,,---,0.00,VWS V13.01,2013-01-06 01:35:00,
2013-01-05 19:40:00,66.7,24.4,25.70,North,0,0.0,0.0,20,0.00,,---,0.00,VWS V13.01,2013-01-06 01:40:00,
2013-01-05 19:45:00,66.7,24.4,25.70,North,0,0.0,0.0,20,0.00,,---,0.00,VWS V13.01,2013-01-06 01:45:00,
2013-01-05 19:50:00,66.7,24.4,25.70,North,0,0.0,0.0,20,0.00,,---,0.00,VWS V13.01,2013-01-06 01:50:00,
2013-01-05 19:55:00,66.9,24.6,25.70,North,0,0.0,0.0,20,0.00,,---,0.00,VWS V13.01,2013-01-06 01:55:00,
2013-01-05 20:00:00,66.9,24.6,25.70,North,0,0.0,0.0,20,0.00,,---,0.00,VWS V13.01,2013-01-06 02:00:00,
2013-01-05 20:05:00,66.9,24.6,25.70,North,0,0.0,0.0,20,0.00,,---,0.00,VWS V13.01,2013-01-06 02:05:00,
2013-01-05 20:10:00,66.7,24.4,25.70,North,0,0.0,0.0,20,0.00,,---,0.00,VWS V13.01,2013-01-06 02:10:00,
2013-01-05 20:15:00,66.7,24.4,25.70,North,0,0.0,0.0,20,0.00,,---,0.00,VWS V13.01,2013-01-06 02:15:00,
2013-01-05 20:20:00,66.7,24.4,25.70,North,0,0.0,0.0,20,0.00,,---,0.00,VWS V13.01,2013-01-06 02:20:00,
2013-01-05 20:25:00,66.7,24.4,25.70,North,0,0.0,0.0,20,0.00,,---,0.00,VWS V13.01,2013-01-06 02:25:00,
2013-01-05 20:30:00,66.6,24.3,25.70,North,0,0.0,0.0,20,0.00,,---,0.00,VWS V13.01,2013-01-06 02:30:00,
2013-01-05 20:35:00,66.6,24.3,25.70,North,0,0.0,0.0,20,0.00,,---,0.00,VWS V13.01,2013-01-06 02:35:00,
2013-01-05 20:40:00,66.9,24.6,25.70,North,0,0.0,0.0,20,0.00,,---,0.00,VWS V13.01,2013-01-06 02:40:00,
2013-01-05 20:45:00,66.9,24.6,25.70,North,0,0.0,0.0,20,0.00,,---,0.00,VWS V13.01,2013-01-06 02:45:00,
2013-01-05 20:50:00,66.4,24.1,25.70,North,0,0.0,0.0,20,0.00,,---,0.00,VWS V13.01,2013-01-06 02:50:00,
2013-01-05 20:55:00,66.4,24.1,25.70,North,0,0.0,0.0,20,0.00,,---,0.00,VWS V13.01,2013-01-06 02:55:00,
2013-01-05 21:00:00,66.4,24.1,25.70,North,0,0.0,0.0,20,0.00,,---,0.00,VWS V13.01,2013-01-06 03:00:00,
2013-01-05 21:05:00,66.4,24.1,25.70,North,0,0.0,0.0,20,0.00,,---,0.00,VWS V13.01,2013-01-06 03:05:00,
2013-01-05 21:10:00,66.2,24.0,25.70,North,0,0.0,0.0,20,0.00,,---,0.00,VWS V13.01,2013-01-06 03:10:00,
2013-01-05 21:15:00,66.2,24.0,25.70,North,0,0.0,0.0,20,0.00,,---,0.00,VWS V13.01,2013-01-06 03:15:00,
2013-01-05 21:21:00,66.2,24.0,25.70,North,0,0.0,0.0,20,0.00,,---,0.00,VWS V13.01,2013-01-06 03:21:00,
2013-01-05 21:26:00,66.2,24.0,25.70,North,0,0.0,0.0,20,0.00,,---,0.00,VWS V13.01,2013-01-06 03:26:00,
2013-01-05 21:31:00,66.9,24.6,25.70,North,0,0.0,0.0,20,0.00,,---,0.00,VWS V13.01,2013-01-06 03:31:00,
2013-01-05 21:36:00,67.1,24.7,25.70,North,0,0.0,0.0,20,0.00,,---,0.00,VWS V13.01,2013-01-06 03:36:00,
2013-01-05 21:41:00,67.3,24.9,25.70,North,0,0.0,0.0,20,0.00,,---,0.00,VWS V13.01,2013-01-06 03:41:00,
2013-01-05 21:46:00,67.5,21.2,25.70,North,0,0.0,0.0,17,0.00,,---,0.00,VWS V13.01,2013-01-06 03:46:00,
2013-01-05 21:51:00,67.6,21.3,25.70,North,0,0.0,0.0,17,0.00,,---,0.00,VWS V13.01,2013-01-06 03:51:00,
2013-01-05 21:56:00,67.6,21.3,25.70,North,0,0.0,0.0,17,0.00,,---,0.00,VWS V13.01,2013-01-06 03:56:00,
2013-01-05 22:01:00,67.6,21.3,25.70,North,0,0.0,0.0,17,0.00,,---,0.00,VWS V13.01,2013-01-06 04:01:00,
2013-01-05 22:06:00,67.6,21.3,25.70,North,0,0.0,0.0,17,0.00,,---,0.00,VWS V13.01,2013-01-06 04:06:00,
2013-01-05 22:11:00,67.5,21.2,25.70,North,0,0.0,0.0,17,0.00,,---,0.00,VWS V13.01,2013-01-06 04:11:00,
2013-01-05 22:16:00,67.5,21.2,25.70,North,0,0.0,0.0,17,0.00,,---,0.00,VWS V13.01,2013-01-06 04:16:00,
2013-01-05 22:21:00,67.5,21.2,25.70,North,0,0.0,0.0,17,0.00,,---,0.00,VWS V13.01,2013-01-06 04:21:00,
2013-01-05 22:26:00,67.5,21.2,25.70,North,0,0.0,0.0,17,0.00,,---,0.00,VWS V13.01,2013-01-06 04:26:00,
2013-01-05 22:31:00,67.5,21.2,25.70,North,0,0.0,0.0,17,0.00,,---,0.00,VWS V13.01,2013-01-06 04:31:00,
2013-01-05 22:36:00,66.9,20.7,25.70,North,0,0.0,0.0,17,0.00,,---,0.00,VWS V13.01,2013-01-06 04:36:00,
2013-01-05 22:41:00,66.9,20.7,25.70,North,0,0.0,0.0,17,0.00,,---,0.00,VWS V13.01,2013-01-06 04:41:00,
2013-01-05 22:46:00,66.9,20.7,25.70,North,0,0.0,0.0,17,0.00,,---,0.00,VWS V13.01,2013-01-06 04:46:00,
2013-01-05 22:52:00,66.9,20.7,25.70,North,0,0.0,0.0,17,0.00,,---,0.00,VWS V13.01,2013-01-06 04:52:00,
2013-01-05 22:57:00,66.9,20.7,25.70,North,0,0.0,0.0,17,0.00,,---,0.00,VWS V13.01,2013-01-06 04:57:00,
2013-01-05 23:00:00,67.1,20.9,25.70,North,0,0.0,0.0,17,0.00,,---,0.00,VWS V13.01,2013-01-06 05:00:00,
2013-01-05 23:01:00,67.1,20.9,25.70,North,0,0.0,0.0,17,0.00,,---,0.00,VWS V13.01,2013-01-06 05:01:00,
2013-01-05 23:03:00,67.1,20.9,25.70,North,0,0.0,0.0,17,0.00,,---,0.00,VWS V13.01,2013-01-06 05:03:00,
2013-01-05 23:04:00,67.1,20.9,25.70,North,0,0.0,0.0,17,0.00,,---,0.00,VWS V13.01,2013-01-06 05:04:00,
2013-01-05 23:08:00,67.1,20.9,25.70,North,0,0.0,0.0,17,0.00,,---,0.00,VWS V13.01,2013-01-06 05:08:00,
2013-01-05 23:13:00,67.3,21.0,25.70,North,0,0.0,0.0,17,0.00,,---,0.00,VWS V13.01,2013-01-06 05:13:00,
2013-01-05 23:18:00,67.1,20.9,25.70,North,0,0.0,0.0,17,0.00,,---,0.00,VWS V13.01,2013-01-06 05:18:00,
2013-01-05 23:23:00,67.1,20.9,25.70,North,0,0.0,0.0,17,0.00,,---,0.00,VWS V13.01,2013-01-06 05:23:00,
2013-01-05 23:28:00,66.7,20.6,25.70,North,0,0.0,0.0,17,0.00,,---,0.00,VWS V13.01,2013-01-06 05:28:00,
2013-01-05 23:33:00,66.7,20.6,25.70,North,0,0.0,0.0,17,0.00,,---,0.00,VWS V13.01,2013-01-06 05:33:00,
2013-01-05 23:38:00,66.7,20.6,25.70,North,0,0.0,0.0,17,0.00,,---,0.00,VWS V13.01,2013-01-06 05:38:00,
2013-01-05 23:43:00,66.9,20.7,25.70,North,0,0.0,0.0,17,0.00,,---,0.00,VWS V13.01,2013-01-06 05:43:00,
2013-01-05 23:48:00,66.9,20.7,25.70,North,0,0.0,0.0,17,0.00,,---,0.00,VWS V13.01,2013-01-06 05:48:00,
2013-01-05 23:53:00,67.1,20.9,25.67,North,0,0.0,0.0,17,0.00,,---,0.00,VWS V13.01,2013-01-06 05:53:00,
2013-01-05 23:58:00,67.3,21.0,25.67,North,0,0.0,0.0,17,0.00,,---,0.00,VWS V13.01,2013-01-06 05:58:00,